Time;durP1;ratioP1;P1;durP2;ratioP2;P2;SDS_P1;SDS_P2;PMS_P1;PMS_P2;Temp;Humidity;BMP_temperature;BMP_pressure;BME280_temperature;BME280_humidity;BME280_pressure;Samples;Min_cycle;Max_cycle;Signal;HPM_P1;HPM_P2
2021/10/14 00:01:10;;;;;;;4.73;3.57;;;;;;;;;;5002010;28;20318;-75
2021/10/14 00:03:36;;;;;;;5.03;3.23;;;;;;;;;;5001226;28;20241;-74
2021/10/14 00:06:01;;;;;;;5.27;3.57;;;;;;;;;;5001231;28;20265;-76
2021/10/14 00:08:26;;;;;;;3.20;3.00;;;;;;;;;;5003135;28;20713;-75
2021/10/14 00:10:52;;;;;;;6.33;3.20;;;;;;;;;;5000064;28;20202;-76
2021/10/14 00:13:17;;;;;;;4.70;3.13;;;;;;;;;;5001080;28;20247;-76
2021/10/14 00:15:42;;;;;;;3.60;3.00;;;;;;;;;;4999044;28;20213;-76
2021/10/14 00:18:07;;;;;;;4.43;2.93;;;;;;;;;;4997756;28;20216;-75
2021/10/14 00:20:33;;;;;;;3.60;2.70;;;;;;;;;;5000739;28;21284;-75
2021/10/14 00:22:58;;;;;;;2.70;2.50;;;;;;;;;;5000894;28;20221;-76
2021/10/14 00:25:23;;;;;;;5.70;2.70;;;;;;;;;;4999940;28;20200;-75
2021/10/14 00:27:49;;;;;;;5.13;2.47;;;;;;;;;;5003533;28;20316;-75
2021/10/14 00:30:14;;;;;;;4.97;2.70;;;;;;;;;;5002937;28;20181;-75
2021/10/14 00:32:39;;;;;;;2.33;2.13;;;;;;;;;;5002930;28;20225;-76
2021/10/14 00:35:05;;;;;;;3.00;2.17;;;;;;;;;;5001889;28;20217;-76
2021/10/14 00:37:30;;;;;;;5.03;2.10;;;;;;;;;;5003078;28;20186;-76
2021/10/14 00:39:55;;;;;;;4.50;2.30;;;;;;;;;;5002304;28;20190;-76
2021/10/14 00:42:21;;;;;;;4.90;1.50;;;;;;;;;;5002274;28;20291;-76
2021/10/14 00:44:50;;;;;;;3.17;1.60;;;;;;;;;;4998643;28;20185;-76
2021/10/14 00:47:19;;;;;;;3.43;1.57;;;;;;;;;;5003604;28;20280;-76
2021/10/14 00:49:45;;;;;;;4.70;1.27;;;;;;;;;;5003022;28;20456;-76
2021/10/14 00:52:10;;;;;;;5.73;1.20;;;;;;;;;;5001107;28;20458;-76
2021/10/14 00:54:36;;;;;;;2.97;0.90;;;;;;;;;;5003378;28;20180;-76
2021/10/14 00:57:01;;;;;;;4.23;1.27;;;;;;;;;;5001271;28;20193;-76
2021/10/14 00:59:27;;;;;;;4.30;1.40;;;;;;;;;;5000042;28;20432;-76
2021/10/14 01:01:52;;;;;;;2.80;1.00;;;;;;;;;;5002616;28;22796;-76
2021/10/14 01:04:18;;;;;;;5.90;1.33;;;;;;;;;;4997269;28;20212;-76
2021/10/14 01:06:43;;;;;;;3.60;0.90;;;;;;;;;;5000247;28;20282;-76
2021/10/14 01:09:08;;;;;;;4.33;0.90;;;;;;;;;;4998556;28;20174;-76
2021/10/14 01:11:34;;;;;;;5.57;1.83;;;;;;;;;;5002468;28;20204;-76
2021/10/14 01:13:59;;;;;;;8.27;2.00;;;;;;;;;;5001234;28;20198;-76
2021/10/14 01:16:24;;;;;;;2.87;1.07;;;;;;;;;;5001176;28;20351;-76
2021/10/14 01:18:49;;;;;;;3.47;1.00;;;;;;;;;;5001357;28;20180;-76
2021/10/14 01:21:15;;;;;;;3.50;1.00;;;;;;;;;;5002909;28;20184;-76
2021/10/14 01:23:40;;;;;;;3.27;0.90;;;;;;;;;;4998586;28;20945;-76
2021/10/14 01:26:06;;;;;;;1.80;1.10;;;;;;;;;;5000195;28;20197;-76
2021/10/14 01:28:31;;;;;;;9.93;1.17;;;;;;;;;;5002827;28;20182;-76
2021/10/14 01:30:57;;;;;;;4.73;1.50;;;;;;;;;;5000033;28;20192;-76
2021/10/14 01:33:22;;;;;;;3.90;1.50;;;;;;;;;;5000378;28;20208;-76
2021/10/14 01:35:48;;;;;;;4.33;1.23;;;;;;;;;;5002255;28;20484;-76
2021/10/14 01:38:13;;;;;;;5.20;2.23;;;;;;;;;;5000145;28;20190;-76
2021/10/14 01:40:38;;;;;;;4.00;1.53;;;;;;;;;;5001443;28;21132;-76
2021/10/14 01:43:03;;;;;;;6.23;1.60;;;;;;;;;;4997549;28;20565;-76
2021/10/14 01:45:28;;;;;;;4.23;1.33;;;;;;;;;;4998872;28;20358;-76
2021/10/14 01:47:54;;;;;;;4.77;1.10;;;;;;;;;;4999902;28;20213;-76
2021/10/14 01:50:19;;;;;;;5.03;1.13;;;;;;;;;;5001341;28;20193;-76
2021/10/14 01:52:44;;;;;;;6.10;1.20;;;;;;;;;;5003019;28;20205;-76
2021/10/14 01:55:09;;;;;;;4.40;1.20;;;;;;;;;;4999778;28;20233;-76
2021/10/14 01:57:35;;;;;;;8.07;1.50;;;;;;;;;;4998954;28;20188;-76
2021/10/14 02:00:00;;;;;;;4.00;1.43;;;;;;;;;;5000718;28;20177;-76
2021/10/14 02:02:25;;;;;;;4.13;1.30;;;;;;;;;;4997836;28;20202;-76
2021/10/14 02:04:50;;;;;;;5.03;1.30;;;;;;;;;;5001678;28;20205;-76
2021/10/14 02:07:16;;;;;;;10.53;1.87;;;;;;;;;;5000121;28;20181;-76
2021/10/14 02:09:41;;;;;;;5.07;1.30;;;;;;;;;;4999549;28;20284;-76
2021/10/14 02:12:06;;;;;;;2.93;1.43;;;;;;;;;;5002908;28;20197;-76
2021/10/14 02:14:31;;;;;;;4.70;1.43;;;;;;;;;;5002393;28;20559;-76
2021/10/14 02:16:57;;;;;;;7.80;2.27;;;;;;;;;;4999993;28;20193;-76
2021/10/14 02:19:22;;;;;;;3.10;1.57;;;;;;;;;;4999434;28;20184;-76
2021/10/14 02:21:47;;;;;;;5.17;1.60;;;;;;;;;;4998798;28;20232;-75
2021/10/14 02:24:12;;;;;;;8.07;1.53;;;;;;;;;;5000056;28;20863;-76
2021/10/14 02:26:38;;;;;;;8.47;1.43;;;;;;;;;;5002050;28;20641;-76
2021/10/14 02:29:03;;;;;;;5.83;1.80;;;;;;;;;;4999425;28;20225;-75
2021/10/14 02:31:28;;;;;;;7.70;1.60;;;;;;;;;;4997794;28;20181;-76
2021/10/14 02:33:53;;;;;;;4.60;1.47;;;;;;;;;;4997172;28;20206;-76
2021/10/14 02:36:19;;;;;;;6.60;1.60;;;;;;;;;;4999660;28;20707;-76
2021/10/14 02:38:44;;;;;;;10.57;2.27;;;;;;;;;;4997001;28;20209;-76
2021/10/14 02:41:09;;;;;;;5.30;1.70;;;;;;;;;;4998609;28;20654;-76
2021/10/14 02:43:34;;;;;;;3.40;1.83;;;;;;;;;;4998269;28;20291;-76
2021/10/14 02:45:59;;;;;;;4.10;1.50;;;;;;;;;;4998452;28;20271;-75
2021/10/14 02:48:25;;;;;;;7.50;1.50;;;;;;;;;;5002424;28;20191;-76
2021/10/14 02:50:50;;;;;;;8.83;1.87;;;;;;;;;;5001008;28;20232;-76
2021/10/14 02:53:15;;;;;;;4.40;1.40;;;;;;;;;;4999656;28;20224;-76
2021/10/14 02:55:40;;;;;;;3.37;1.37;;;;;;;;;;4995645;28;20212;-76
2021/10/14 02:58:06;;;;;;;4.50;1.40;;;;;;;;;;4999092;28;20185;-76
2021/10/14 03:00:31;;;;;;;4.10;1.00;;;;;;;;;;4997626;28;20177;-76
2021/10/14 03:02:56;;;;;;;4.20;1.50;;;;;;;;;;4997883;28;20767;-76
2021/10/14 03:05:21;;;;;;;6.40;1.30;;;;;;;;;;4998858;28;20193;-76
2021/10/14 03:07:47;;;;;;;7.80;1.70;;;;;;;;;;4998322;28;20217;-76
2021/10/14 03:10:12;;;;;;;5.03;1.50;;;;;;;;;;4998863;28;20177;-76
2021/10/14 03:12:37;;;;;;;7.37;1.80;;;;;;;;;;4998652;28;20743;-76
2021/10/14 03:15:03;;;;;;;6.77;1.97;;;;;;;;;;4996487;28;20201;-76
2021/10/14 03:17:28;;;;;;;6.97;1.70;;;;;;;;;;5001443;28;20272;-76
2021/10/14 03:19:53;;;;;;;3.30;1.30;;;;;;;;;;4998355;28;20173;-76
2021/10/14 03:22:19;;;;;;;3.90;1.80;;;;;;;;;;5000092;28;20205;-76
2021/10/14 03:24:44;;;;;;;2.40;1.40;;;;;;;;;;5015481;28;20200;-76
2021/10/14 03:27:09;;;;;;;4.13;1.40;;;;;;;;;;4999839;28;20192;-76
2021/10/14 03:29:34;;;;;;;5.93;1.73;;;;;;;;;;4999207;28;20189;-76
2021/10/14 03:32:00;;;;;;;6.00;1.23;;;;;;;;;;5000269;28;20191;-76
2021/10/14 03:34:25;;;;;;;4.43;1.67;;;;;;;;;;4999953;28;20174;-76
2021/10/14 03:36:50;;;;;;;4.00;1.67;;;;;;;;;;5000413;28;20228;-76
2021/10/14 03:39:15;;;;;;;3.33;1.30;;;;;;;;;;5000169;28;20790;-76
2021/10/14 03:41:41;;;;;;;5.13;1.70;;;;;;;;;;4998325;28;24532;-76
2021/10/14 03:44:08;;;;;;;3.83;1.67;;;;;;;;;;5001898;28;20618;-76
2021/10/14 03:46:33;;;;;;;4.97;1.43;;;;;;;;;;5000144;28;20215;-76
2021/10/14 03:48:59;;;;;;;2.43;1.60;;;;;;;;;;5000026;28;20480;-76
2021/10/14 03:51:24;;;;;;;7.93;2.07;;;;;;;;;;4999208;28;20185;-76
2021/10/14 03:53:49;;;;;;;6.43;1.73;;;;;;;;;;4997587;28;20213;-76
2021/10/14 03:56:14;;;;;;;3.90;1.57;;;;;;;;;;4996899;28;20205;-76
2021/10/14 03:58:40;;;;;;;8.03;1.97;;;;;;;;;;4998586;28;20668;-76
2021/10/14 04:01:05;;;;;;;2.97;1.50;;;;;;;;;;5000181;28;20635;-76
2021/10/14 04:03:31;;;;;;;3.30;1.40;;;;;;;;;;5002815;28;20220;-76
2021/10/14 04:05:56;;;;;;;3.43;1.40;;;;;;;;;;5004747;28;20283;-76
2021/10/14 04:08:21;;;;;;;3.90;1.60;;;;;;;;;;5002140;28;20200;-76
2021/10/14 04:10:46;;;;;;;2.70;1.40;;;;;;;;;;4999999;28;20392;-76
2021/10/14 04:13:12;;;;;;;3.57;1.67;;;;;;;;;;5001154;28;20281;-76
2021/10/14 04:15:37;;;;;;;3.70;1.43;;;;;;;;;;5000102;28;20290;-76
2021/10/14 04:18:02;;;;;;;5.07;2.20;;;;;;;;;;4995715;28;20181;-76
2021/10/14 04:20:27;;;;;;;3.17;1.60;;;;;;;;;;5000709;28;20649;-76
2021/10/14 04:22:53;;;;;;;3.80;1.73;;;;;;;;;;5001217;28;20237;-76
2021/10/14 04:25:19;;;;;;;3.13;1.60;;;;;;;;;;5000989;28;20552;-76
2021/10/14 04:27:44;;;;;;;2.40;1.37;;;;;;;;;;5004415;28;21035;-76
2021/10/14 04:30:09;;;;;;;4.00;1.93;;;;;;;;;;5001730;28;20185;-76
2021/10/14 04:32:35;;;;;;;10.83;2.30;;;;;;;;;;5000501;28;20279;-76
2021/10/14 04:35:01;;;;;;;3.30;1.60;;;;;;;;;;5000622;28;20200;-76
2021/10/14 04:37:27;;;;;;;7.80;2.00;;;;;;;;;;4999754;28;20192;-76
2021/10/14 04:39:52;;;;;;;3.50;1.63;;;;;;;;;;5002438;28;20432;-76
2021/10/14 04:42:17;;;;;;;2.50;1.53;;;;;;;;;;5001592;28;20232;-76
2021/10/14 04:44:42;;;;;;;3.13;1.33;;;;;;;;;;5006004;28;20194;-76
2021/10/14 04:47:08;;;;;;;3.10;1.67;;;;;;;;;;5001200;28;20668;-76
2021/10/14 04:49:33;;;;;;;3.70;2.13;;;;;;;;;;4998449;28;20525;-75
2021/10/14 04:51:58;;;;;;;3.20;1.90;;;;;;;;;;4998185;28;20178;-76
2021/10/14 04:54:24;;;;;;;4.17;2.30;;;;;;;;;;5002017;28;20181;-76
2021/10/14 04:56:49;;;;;;;4.63;1.70;;;;;;;;;;5003336;28;20209;-76
2021/10/14 04:59:14;;;;;;;3.77;1.93;;;;;;;;;;5004258;28;20541;-76
2021/10/14 05:01:40;;;;;;;4.50;2.40;;;;;;;;;;5002722;28;20260;-76
2021/10/14 05:04:05;;;;;;;6.57;2.43;;;;;;;;;;5002654;28;20694;-76
2021/10/14 05:06:31;;;;;;;4.07;2.40;;;;;;;;;;5000993;28;20567;-76
2021/10/14 05:08:56;;;;;;;4.73;2.50;;;;;;;;;;5002540;28;20199;-76
2021/10/14 05:11:21;;;;;;;2.87;2.30;;;;;;;;;;5001741;28;20205;-75
2021/10/14 05:13:46;;;;;;;3.70;2.00;;;;;;;;;;5002772;28;20204;-76
2021/10/14 05:16:12;;;;;;;4.10;2.23;;;;;;;;;;4998098;28;20314;-76
2021/10/14 05:18:37;;;;;;;5.83;2.20;;;;;;;;;;4998324;28;20177;-75
2021/10/14 05:21:02;;;;;;;5.27;2.63;;;;;;;;;;4998598;28;20192;-75
2021/10/14 05:23:28;;;;;;;2.90;2.60;;;;;;;;;;5002724;28;20217;-75
2021/10/14 05:25:56;;;;;;;5.30;2.43;;;;;;;;;;4997689;28;20269;-74
2021/10/14 05:28:21;;;;;;;8.50;2.50;;;;;;;;;;5002996;28;20450;-75
2021/10/14 05:30:47;;;;;;;7.77;2.57;;;;;;;;;;5001891;28;20440;-75
2021/10/14 05:33:12;;;;;;;3.63;3.00;;;;;;;;;;5001576;28;20208;-74
2021/10/14 05:35:38;;;;;;;5.30;2.63;;;;;;;;;;4998931;28;20205;-74
2021/10/14 05:38:03;;;;;;;4.73;2.50;;;;;;;;;;5002099;28;20258;-75
2021/10/14 05:40:28;;;;;;;5.40;2.53;;;;;;;;;;5001629;28;20535;-74
2021/10/14 05:42:54;;;;;;;7.37;2.67;;;;;;;;;;5002511;28;20223;-74
2021/10/14 05:45:19;;;;;;;5.43;2.73;;;;;;;;;;5001809;28;20207;-75
2021/10/14 05:47:44;;;;;;;4.60;2.97;;;;;;;;;;5001838;28;20181;-74
2021/10/14 05:50:10;;;;;;;5.33;2.77;;;;;;;;;;5001814;28;20540;-74
2021/10/14 05:52:35;;;;;;;6.00;2.77;;;;;;;;;;5004126;28;20216;-76
2021/10/14 05:55:00;;;;;;;5.23;3.17;;;;;;;;;;4994338;28;20201;-75
2021/10/14 05:57:25;;;;;;;5.53;3.10;;;;;;;;;;4996743;28;20169;-75
2021/10/14 05:59:51;;;;;;;6.00;3.10;;;;;;;;;;5000210;28;20172;-75
2021/10/14 06:02:16;;;;;;;4.43;3.17;;;;;;;;;;4993400;28;20189;-74
2021/10/14 06:04:41;;;;;;;6.93;3.50;;;;;;;;;;4999599;28;20280;-75
2021/10/14 06:07:07;;;;;;;5.17;3.47;;;;;;;;;;5002800;28;20189;-75
2021/10/14 06:09:32;;;;;;;7.17;3.37;;;;;;;;;;5004092;28;20173;-74
2021/10/14 06:11:57;;;;;;;3.30;3.00;;;;;;;;;;4995529;28;20178;-74
2021/10/14 06:14:25;;;;;;;5.90;3.23;;;;;;;;;;4997460;28;20181;-74
2021/10/14 06:16:50;;;;;;;3.77;2.80;;;;;;;;;;4996016;28;20225;-74
2021/10/14 06:19:15;;;;;;;3.73;2.87;;;;;;;;;;5004816;28;20458;-75
2021/10/14 06:21:40;;;;;;;4.50;3.10;;;;;;;;;;5001694;28;20235;-74
2021/10/14 06:24:08;;;;;;;4.80;3.47;;;;;;;;;;4998930;28;20230;-74
2021/10/14 06:26:33;;;;;;;7.77;3.77;;;;;;;;;;5002108;28;20184;-75
2021/10/14 06:28:58;;;;;;;4.70;2.77;;;;;;;;;;4999408;28;20435;-75
2021/10/14 06:31:24;;;;;;;6.33;2.83;;;;;;;;;;5000230;28;20193;-74
2021/10/14 06:33:49;;;;;;;5.30;3.40;;;;;;;;;;5000736;28;20205;-74
2021/10/14 06:36:14;;;;;;;6.50;3.13;;;;;;;;;;5000034;28;20219;-75
2021/10/14 06:38:39;;;;;;;7.10;3.20;;;;;;;;;;4999387;28;20189;-74
2021/10/14 06:41:05;;;;;;;6.20;2.90;;;;;;;;;;5000809;28;20221;-75
2021/10/14 06:43:30;;;;;;;7.63;3.90;;;;;;;;;;4997166;28;20259;-75
2021/10/14 06:45:55;;;;;;;6.43;3.37;;;;;;;;;;4994090;28;20193;-75
2021/10/14 06:48:20;;;;;;;4.20;2.83;;;;;;;;;;5001030;28;20280;-74
2021/10/14 06:50:48;;;;;;;6.90;3.17;;;;;;;;;;5000103;28;20599;-75
2021/10/14 06:53:13;;;;;;;10.00;3.30;;;;;;;;;;4995183;28;20263;-75
2021/10/14 06:55:42;;;;;;;4.47;3.30;;;;;;;;;;5000491;28;20472;-75
2021/10/14 06:58:07;;;;;;;4.57;3.33;;;;;;;;;;4996644;28;20186;-75
2021/10/14 07:00:32;;;;;;;7.10;3.80;;;;;;;;;;4999643;28;20447;-75
2021/10/14 07:02:58;;;;;;;6.57;4.00;;;;;;;;;;5001118;28;20228;-75
2021/10/14 07:05:23;;;;;;;5.60;3.30;;;;;;;;;;4999419;28;20188;-75
2021/10/14 07:07:49;;;;;;;7.00;3.60;;;;;;;;;;5000413;28;20186;-74
2021/10/14 07:10:15;;;;;;;6.37;3.50;;;;;;;;;;4998447;28;20741;-75
2021/10/14 07:12:41;;;;;;;6.87;3.93;;;;;;;;;;5001091;28;20295;-76
2021/10/14 07:15:07;;;;;;;3.63;3.17;;;;;;;;;;5000778;28;20555;-75
2021/10/14 07:17:32;;;;;;;5.23;3.47;;;;;;;;;;5003708;28;20275;-75
2021/10/14 07:19:57;;;;;;;5.47;2.93;;;;;;;;;;4998363;28;20195;-75
2021/10/14 07:22:22;;;;;;;5.47;3.47;;;;;;;;;;5002439;28;20208;-75
2021/10/14 07:24:48;;;;;;;8.00;3.83;;;;;;;;;;5002383;28;20181;-74
2021/10/14 07:27:13;;;;;;;7.70;3.70;;;;;;;;;;4999001;28;20226;-76
2021/10/14 07:29:38;;;;;;;6.10;4.17;;;;;;;;;;5001611;28;20252;-74
2021/10/14 07:32:05;;;;;;;6.83;4.07;;;;;;;;;;5006394;28;20873;-74
2021/10/14 07:34:31;;;;;;;6.80;5.10;;;;;;;;;;5004156;28;20177;-76
2021/10/14 07:36:56;;;;;;;8.03;4.23;;;;;;;;;;4998091;28;20475;-74
2021/10/14 07:39:21;;;;;;;7.20;4.77;;;;;;;;;;5001474;28;20703;-74
2021/10/14 07:41:46;;;;;;;8.13;5.03;;;;;;;;;;5003107;28;20267;-74
2021/10/14 07:44:16;;;;;;;8.47;4.30;;;;;;;;;;5001382;28;20201;-75
2021/10/14 07:46:41;;;;;;;7.10;5.00;;;;;;;;;;5003352;28;20208;-74
2021/10/14 07:49:07;;;;;;;9.73;4.93;;;;;;;;;;5003377;28;20471;-75
2021/10/14 07:51:32;;;;;;;10.10;4.80;;;;;;;;;;5003536;28;20177;-75
2021/10/14 07:53:57;;;;;;;9.10;5.13;;;;;;;;;;5006029;28;22481;-74
2021/10/14 07:56:23;;;;;;;7.30;5.20;;;;;;;;;;5001068;28;20267;-74
2021/10/14 07:58:49;;;;;;;10.43;5.37;;;;;;;;;;5005760;28;20181;-74
2021/10/14 08:01:14;;;;;;;6.93;5.03;;;;;;;;;;5000726;28;20177;-75
2021/10/14 08:03:40;;;;;;;10.30;5.60;;;;;;;;;;5015480;28;20476;-74
2021/10/14 08:06:05;;;;;;;14.07;6.00;;;;;;;;;;5001600;28;20220;-74
2021/10/14 08:08:30;;;;;;;6.20;5.00;;;;;;;;;;5006130;28;20720;-75
2021/10/14 08:10:56;;;;;;;8.57;5.00;;;;;;;;;;5001764;28;20189;-75
2021/10/14 08:13:22;;;;;;;6.50;5.30;;;;;;;;;;5003929;28;20205;-74
2021/10/14 08:15:50;;;;;;;7.50;6.33;;;;;;;;;;5002936;28;20468;-74
2021/10/14 08:18:20;;;;;;;11.97;6.27;;;;;;;;;;5000349;28;20196;-74
2021/10/14 08:20:45;;;;;;;8.57;6.40;;;;;;;;;;5000381;28;20442;-73
2021/10/14 08:23:11;;;;;;;8.00;5.87;;;;;;;;;;5014986;28;20456;-74
2021/10/14 08:25:36;;;;;;;8.80;6.13;;;;;;;;;;4998454;28;20189;-74
2021/10/14 08:28:01;;;;;;;10.10;6.40;;;;;;;;;;5002667;28;20196;-74
2021/10/14 08:30:27;;;;;;;11.27;7.03;;;;;;;;;;4998901;28;20662;-74
2021/10/14 08:32:52;;;;;;;10.73;6.80;;;;;;;;;;5003961;28;20288;-74
2021/10/14 08:35:18;;;;;;;8.30;6.10;;;;;;;;;;4996636;28;20228;-74
2021/10/14 08:37:43;;;;;;;8.20;5.90;;;;;;;;;;4998896;28;20193;-74
2021/10/14 08:40:09;;;;;;;6.10;5.30;;;;;;;;;;4998388;28;20173;-74
2021/10/14 08:42:34;;;;;;;9.73;6.57;;;;;;;;;;5000414;28;20252;-74
2021/10/14 08:45:03;;;;;;;8.17;5.77;;;;;;;;;;5001612;28;20611;-74
2021/10/14 08:47:29;;;;;;;14.10;5.37;;;;;;;;;;4998718;28;21674;-74
2021/10/14 08:49:57;;;;;;;7.50;5.37;;;;;;;;;;5000694;28;20436;-74
2021/10/14 08:52:22;;;;;;;9.70;6.67;;;;;;;;;;5005149;28;20216;-74
2021/10/14 08:54:47;;;;;;;8.80;5.77;;;;;;;;;;4999583;28;20444;-75
2021/10/14 08:57:12;;;;;;;7.30;5.63;;;;;;;;;;5003012;28;20178;-75
2021/10/14 08:59:38;;;;;;;7.80;6.20;;;;;;;;;;5003854;28;20184;-75
2021/10/14 09:02:15;;;;;;;8.30;5.80;;;;;;;;;;5004435;28;20181;-75
2021/10/14 09:04:40;;;;;;;9.23;6.30;;;;;;;;;;5001783;28;20181;-75
2021/10/14 09:07:19;;;;;;;10.97;5.20;;;;;;;;;;4998959;28;21128;-75
2021/10/14 09:09:45;;;;;;;8.07;5.97;;;;;;;;;;4999539;28;20197;-75
2021/10/14 09:12:11;;;;;;;7.47;4.93;;;;;;;;;;5000703;28;20436;-75
2021/10/14 09:14:55;;;;;;;8.17;5.80;;;;;;;;;;5002721;28;20703;-75
2021/10/14 09:17:39;;;;;;;8.60;5.30;;;;;;;;;;5002186;28;20435;-75
2021/10/14 09:20:23;;;;;;;6.37;5.30;;;;;;;;;;5003434;28;20812;-74
2021/10/14 09:22:57;;;;;;;12.83;5.03;;;;;;;;;;5000301;28;20466;-75
2021/10/14 09:25:35;;;;;;;8.17;5.30;;;;;;;;;;5002034;28;20445;-75
2021/10/14 09:28:10;;;;;;;6.63;5.80;;;;;;;;;;4998912;28;20447;-74
2021/10/14 09:30:44;;;;;;;6.80;5.37;;;;;;;;;;5001274;28;20432;-74
2021/10/14 09:33:28;;;;;;;7.57;4.60;;;;;;;;;;5001433;28;20460;-74
2021/10/14 09:35:53;;;;;;;5.80;4.50;;;;;;;;;;4999715;28;20476;-74
2021/10/14 09:38:33;;;;;;;6.00;5.17;;;;;;;;;;4996929;28;20443;-74
2021/10/14 09:41:02;;;;;;;6.90;4.90;;;;;;;;;;4998230;28;20547;-74
2021/10/14 09:43:27;;;;;;;5.37;4.07;;;;;;;;;;5003137;28;20797;-74
2021/10/14 09:45:53;;;;;;;7.83;4.63;;;;;;;;;;5001372;28;20431;-73
2021/10/14 09:48:18;;;;;;;5.87;4.00;;;;;;;;;;5004698;28;20181;-74
2021/10/14 09:50:45;;;;;;;7.30;4.37;;;;;;;;;;5000306;28;20176;-73
2021/10/14 09:53:14;;;;;;;5.67;4.53;;;;;;;;;;5002739;28;20681;-73
2021/10/14 09:55:40;;;;;;;6.53;4.10;;;;;;;;;;5006602;28;20560;-74
2021/10/14 09:58:08;;;;;;;6.17;4.67;;;;;;;;;;4999016;28;20443;-74
2021/10/14 10:00:36;;;;;;;4.70;4.03;;;;;;;;;;4998910;28;20181;-73
2021/10/14 10:03:02;;;;;;;4.73;3.80;;;;;;;;;;5013285;28;20463;-73
2021/10/14 10:05:29;;;;;;;7.63;4.50;;;;;;;;;;5000074;28;20578;-73
2021/10/14 10:07:56;;;;;;;8.73;3.80;;;;;;;;;;4999677;28;20446;-73
2021/10/14 10:10:22;;;;;;;8.60;4.33;;;;;;;;;;4992120;28;20579;-74
2021/10/14 10:12:49;;;;;;;11.27;4.63;;;;;;;;;;4990379;28;20463;-75
2021/10/14 10:15:14;;;;;;;5.67;3.80;;;;;;;;;;4988736;28;20479;-75
2021/10/14 10:17:40;;;;;;;8.17;4.37;;;;;;;;;;4989973;28;20455;-74
2021/10/14 10:20:07;;;;;;;6.20;4.60;;;;;;;;;;4995114;28;20601;-74
2021/10/14 10:22:35;;;;;;;13.27;4.60;;;;;;;;;;4990058;28;20521;-74
2021/10/14 10:25:19;;;;;;;6.00;3.80;;;;;;;;;;4997463;28;20432;-74
2021/10/14 10:27:47;;;;;;;6.13;3.43;;;;;;;;;;4999128;28;20503;-75
2021/10/14 10:30:27;;;;;;;7.30;4.53;;;;;;;;;;4999210;28;20512;-74
2021/10/14 10:32:52;;;;;;;6.37;3.40;;;;;;;;;;4998182;28;20451;-74
2021/10/14 10:35:38;;;;;;;10.53;4.90;;;;;;;;;;4993207;28;21514;-73
2021/10/14 10:38:17;;;;;;;7.07;4.40;;;;;;;;;;4992369;28;20697;-74
2021/10/14 10:40:43;;;;;;;6.63;3.87;;;;;;;;;;4996250;28;20518;-73
2021/10/14 10:43:26;;;;;;;8.57;4.07;;;;;;;;;;5000562;28;21594;-73
2021/10/14 10:45:52;;;;;;;8.23;4.40;;;;;;;;;;4999687;28;20439;-73
2021/10/14 10:48:37;;;;;;;8.43;4.30;;;;;;;;;;5002216;28;20436;-73
2021/10/14 10:51:03;;;;;;;8.73;4.60;;;;;;;;;;4997945;28;20489;-73
2021/10/14 10:53:42;;;;;;;8.97;4.60;;;;;;;;;;5000252;28;20460;-73
2021/10/14 10:56:27;;;;;;;5.20;4.37;;;;;;;;;;4998253;28;20205;-74
2021/10/14 10:58:52;;;;;;;8.07;4.50;;;;;;;;;;5007019;28;21256;-73
2021/10/14 11:01:21;;;;;;;7.93;4.17;;;;;;;;;;4996376;28;20432;-74
2021/10/14 11:03:50;;;;;;;5.80;4.10;;;;;;;;;;4998684;28;20205;-73
2021/10/14 11:06:15;;;;;;;6.90;4.30;;;;;;;;;;4998220;28;20518;-73
2021/10/14 11:08:40;;;;;;;4.80;4.40;;;;;;;;;;4998722;28;20523;-73
2021/10/14 11:11:07;;;;;;;6.60;4.20;;;;;;;;;;4998043;28;20181;-73
2021/10/14 11:13:35;;;;;;;6.87;4.03;;;;;;;;;;5001440;28;20256;-74
2021/10/14 11:16:02;;;;;;;5.47;4.87;;;;;;;;;;5003805;28;22066;-73
2021/10/14 11:18:28;;;;;;;5.10;4.17;;;;;;;;;;5001573;28;20474;-73
2021/10/14 11:20:53;;;;;;;8.20;4.63;;;;;;;;;;5000346;28;20848;-73
2021/10/14 11:23:19;;;;;;;6.37;4.30;;;;;;;;;;5001608;28;20228;-73
2021/10/14 11:25:44;;;;;;;8.93;4.80;;;;;;;;;;5003256;28;20562;-73
2021/10/14 11:28:11;;;;;;;5.80;3.77;;;;;;;;;;5002484;28;20794;-73
2021/10/14 11:30:38;;;;;;;6.07;4.83;;;;;;;;;;4993490;28;21905;-74
2021/10/14 11:33:10;;;;;;;6.87;4.53;;;;;;;;;;4990953;28;20490;-74
2021/10/14 11:35:36;;;;;;;8.20;4.50;;;;;;;;;;4994438;28;21111;-75
2021/10/14 11:38:11;;;;;;;7.63;4.30;;;;;;;;;;4997276;28;20462;-73
2021/10/14 11:40:38;;;;;;;7.50;3.67;;;;;;;;;;4990218;28;20231;-73
2021/10/14 11:43:03;;;;;;;8.23;3.30;;;;;;;;;;5013782;28;20995;-73
2021/10/14 11:45:28;;;;;;;4.77;3.83;;;;;;;;;;4996678;28;20429;-73
2021/10/14 11:47:53;;;;;;;6.57;3.53;;;;;;;;;;4997465;28;20178;-73
2021/10/14 11:50:23;;;;;;;4.80;2.80;;;;;;;;;;4995758;28;20181;-73
2021/10/14 11:52:58;;;;;;;6.47;3.73;;;;;;;;;;4995374;28;20685;-73
2021/10/14 11:55:23;;;;;;;3.17;2.90;;;;;;;;;;4992672;28;21733;-73
2021/10/14 11:57:49;;;;;;;5.53;2.60;;;;;;;;;;4996293;28;20502;-73
2021/10/14 12:00:14;;;;;;;3.40;3.00;;;;;;;;;;4998597;28;20650;-74
2021/10/14 12:02:43;;;;;;;8.03;2.80;;;;;;;;;;4993356;28;20212;-73
2021/10/14 12:05:08;;;;;;;7.80;3.30;;;;;;;;;;4990279;28;20177;-74
2021/10/14 12:07:34;;;;;;;6.40;2.70;;;;;;;;;;5000090;28;20902;-73
2021/10/14 12:09:59;;;;;;;8.40;2.97;;;;;;;;;;4994682;28;20185;-73
2021/10/14 12:12:26;;;;;;;5.67;2.50;;;;;;;;;;4996122;28;20222;-73
2021/10/14 12:15:01;;;;;;;4.97;2.30;;;;;;;;;;4990014;28;21744;-74
2021/10/14 12:17:35;;;;;;;5.63;2.57;;;;;;;;;;4993869;28;20436;-74
2021/10/14 12:20:08;;;;;;;3.30;2.70;;;;;;;;;;4991358;28;20559;-73
2021/10/14 12:22:39;;;;;;;3.63;2.43;;;;;;;;;;4997082;28;20456;-74
2021/10/14 12:25:05;;;;;;;3.73;2.07;;;;;;;;;;4994748;28;20435;-74
2021/10/14 12:27:40;;;;;;;5.10;2.70;;;;;;;;;;4999241;28;20431;-74
2021/10/14 12:30:16;;;;;;;8.70;2.70;;;;;;;;;;4994633;28;20439;-74
2021/10/14 12:32:41;;;;;;;5.57;2.40;;;;;;;;;;4996070;28;20455;-73
2021/10/14 12:35:06;;;;;;;5.13;2.27;;;;;;;;;;4996591;28;20443;-74
2021/10/14 12:37:33;;;;;;;3.30;2.13;;;;;;;;;;4999436;28;20180;-73
2021/10/14 12:40:29;;;;;;;8.93;2.97;;;;;;;;;;4999104;28;20222;-74
2021/10/14 12:45:42;;;;;;;4.03;1.73;;;;;;;;;;4996599;28;20432;-74
2021/10/14 12:48:12;;;;;;;8.60;2.73;;;;;;;;;;5005489;28;20496;-74
2021/10/14 12:53:40;;;;;;;5.73;2.40;;;;;;;;;;5000978;28;20495;-74
2021/10/14 12:56:06;;;;;;;6.00;2.60;;;;;;;;;;5002044;28;20463;-74
2021/10/14 12:58:31;;;;;;;7.23;2.63;;;;;;;;;;5004454;28;20428;-74
2021/10/14 13:01:02;;;;;;;3.93;1.97;;;;;;;;;;5003841;28;20181;-74
2021/10/14 13:03:27;;;;;;;5.40;2.43;;;;;;;;;;5001557;28;20209;-72
2021/10/14 13:05:53;;;;;;;1.90;1.77;;;;;;;;;;4997280;28;20434;-72
2021/10/14 13:08:18;;;;;;;6.17;2.20;;;;;;;;;;4997766;28;20177;-72
2021/10/14 13:10:44;;;;;;;4.73;2.50;;;;;;;;;;4998136;28;20177;-72
2021/10/14 13:13:09;;;;;;;4.57;2.23;;;;;;;;;;4999923;28;20623;-73
2021/10/14 13:15:34;;;;;;;5.60;1.77;;;;;;;;;;5000163;28;20882;-72
2021/10/14 13:17:59;;;;;;;5.50;1.83;;;;;;;;;;5004386;28;20173;-73
2021/10/14 13:20:25;;;;;;;3.50;1.93;;;;;;;;;;5003078;28;20177;-73
2021/10/14 13:22:50;;;;;;;3.33;1.50;;;;;;;;;;5003591;28;20201;-72
2021/10/14 13:25:15;;;;;;;3.80;2.13;;;;;;;;;;4999665;28;20312;-73
2021/10/14 13:27:40;;;;;;;3.63;2.10;;;;;;;;;;5001842;28;20247;-72
2021/10/14 13:30:06;;;;;;;4.63;1.90;;;;;;;;;;5002757;28;20185;-73
2021/10/14 13:32:31;;;;;;;2.30;1.60;;;;;;;;;;5003934;28;20296;-73
2021/10/14 13:34:56;;;;;;;3.07;1.93;;;;;;;;;;5001732;28;20191;-73
2021/10/14 13:37:22;;;;;;;3.27;2.03;;;;;;;;;;4999730;28;20197;-73
2021/10/14 13:39:50;;;;;;;3.23;1.73;;;;;;;;;;4996549;28;22417;-73
2021/10/14 13:42:15;;;;;;;6.60;3.23;;;;;;;;;;5003744;28;20186;-73
2021/10/14 13:44:40;;;;;;;5.73;2.80;;;;;;;;;;5000450;28;20436;-74
2021/10/14 13:49:35;;;;;;;3.50;2.90;;;;;;;;;;4968463;28;20234;-76
2021/10/14 13:52:00;;;;;;;3.60;2.70;;;;;;;;;;4976624;28;21001;-75
2021/10/14 13:54:25;;;;;;;5.30;3.80;;;;;;;;;;4978045;28;20440;-75
2021/10/14 13:56:50;;;;;;;5.27;3.57;;;;;;;;;;4976995;28;20198;-76
2021/10/14 13:59:16;;;;;;;6.13;4.03;;;;;;;;;;4980517;28;20548;-78
2021/10/14 14:01:44;;;;;;;5.70;3.90;;;;;;;;;;4981775;28;20197;-76
2021/10/14 14:04:09;;;;;;;8.90;4.07;;;;;;;;;;4978313;28;20182;-76
2021/10/14 14:06:36;;;;;;;5.33;4.47;;;;;;;;;;4976682;28;20444;-76
2021/10/14 14:09:02;;;;;;;7.87;4.97;;;;;;;;;;4979253;28;20202;-78
2021/10/14 14:11:27;;;;;;;8.07;5.00;;;;;;;;;;4979647;28;20467;-78
2021/10/14 14:13:53;;;;;;;9.13;5.60;;;;;;;;;;4974019;28;20181;-76
2021/10/14 14:16:21;;;;;;;9.47;6.07;;;;;;;;;;4973516;28;20276;-76
2021/10/14 14:18:46;;;;;;;7.50;5.00;;;;;;;;;;4974421;28;20280;-75
2021/10/14 14:21:13;;;;;;;5.90;5.30;;;;;;;;;;4975546;28;20545;-75
2021/10/14 14:23:39;;;;;;;8.67;5.80;;;;;;;;;;4990019;28;20257;-76
2021/10/14 14:26:04;;;;;;;9.83;6.30;;;;;;;;;;4976568;28;20896;-75
2021/10/14 14:28:29;;;;;;;6.80;5.63;;;;;;;;;;4975665;28;20213;-76
2021/10/14 14:30:54;;;;;;;9.00;5.47;;;;;;;;;;4976796;28;20603;-75
2021/10/14 14:33:20;;;;;;;9.00;5.10;;;;;;;;;;4980028;28;20197;-75
2021/10/14 14:35:46;;;;;;;5.13;4.60;;;;;;;;;;4974721;28;20609;-75
2021/10/14 14:38:11;;;;;;;15.17;6.17;;;;;;;;;;4975854;28;20567;-76
2021/10/14 14:40:36;;;;;;;6.50;5.10;;;;;;;;;;4976975;28;20549;-76
2021/10/14 14:43:02;;;;;;;9.07;5.00;;;;;;;;;;4977370;28;20181;-75
2021/10/14 14:45:27;;;;;;;7.03;5.20;;;;;;;;;;4972113;28;20194;-76
2021/10/14 14:47:53;;;;;;;7.53;5.57;;;;;;;;;;4977715;28;20205;-75